Time;durP1;ratioP1;P1;durP2;ratioP2;P2;SDS_P1;SDS_P2;PMS_P1;PMS_P2;Temp;Humidity;BMP_temperature;BMP_pressure;BME280_temperature;BME280_humidity;BME280_pressure;Samples;Min_cycle;Max_cycle;Signal;HPM_P1;HPM_P2
2022/09/12 00:00:04;;;;;;;;;;;18.40;99.00;220.40;238766.00;;;;348763;28;4686;-91
2022/09/12 00:00:16;;;;;;;;;;;18.40;98.80;220.40;238766.00;;;;348590;28;4857;-91
2022/09/12 00:00:30;;;;;;;;;;;18.40;99.00;220.40;238766.00;;;;348554;28;4724;-90
2022/09/12 00:00:42;;;;;;;;;;;18.40;99.00;220.40;238766.00;;;;348799;28;4803;-91
2022/09/12 00:01:26;;;;;;;;;;;18.40;99.00;220.40;238766.00;;;;345930;28;4719;-91
2022/09/12 00:01:38;;;;;;;;;;;18.40;99.00;220.40;238766.00;;;;343336;28;4793;-91
2022/09/12 00:01:50;;;;;;;;;;;18.40;99.10;220.40;238766.00;;;;341885;28;4917;-91
2022/09/12 00:02:02;;;;;;;;;;;18.40;99.20;220.40;238766.00;;;;344664;28;4826;-91
2022/09/12 00:02:14;;;;;;;;;;;18.30;99.10;220.40;238766.00;;;;348716;28;4692;-90
2022/09/12 00:02:26;;;;;;;;;;;18.30;99.10;220.40;238766.00;;;;348818;28;4842;-91
2022/09/12 00:02:38;;;;;;;;;;;18.40;99.10;220.40;238766.00;;;;347434;28;4725;-91
2022/09/12 00:02:53;;;;;;;;;;;18.40;99.10;220.40;238766.00;;;;347235;28;4848;-90
2022/09/12 00:03:04;;;;;;;;;;;18.40;99.20;220.40;238766.00;;;;347306;28;4788;-91
2022/09/12 00:03:16;;;;;;;;;;;18.30;98.90;220.40;238766.00;;;;345741;28;4981;-91
2022/09/12 00:03:28;;;;;;;;;;;18.40;99.20;220.40;238766.00;;;;350175;28;4718;-92
2022/09/12 00:03:40;;;;;;;;;;;18.40;99.40;220.40;238766.00;;;;350242;28;4775;-91
2022/09/12 00:03:57;;;;;;;;;;;18.30;99.20;220.40;238766.00;;;;348938;28;4710;-91
2022/09/12 00:04:09;;;;;;;;;;;18.30;99.20;220.40;238766.00;;;;346103;28;4712;-90
2022/09/12 00:04:20;;;;;;;;;;;18.30;99.30;220.40;238766.00;;;;344792;28;4746;-92
2022/09/12 00:04:32;;;;;;;;;;;18.30;99.30;220.40;238766.00;;;;346214;28;4794;-90
2022/09/12 00:04:44;;;;;;;;;;;18.30;99.20;220.40;238766.00;;;;347772;28;4708;-91
2022/09/12 00:04:56;;;;;;;;;;;18.30;99.10;220.40;238766.00;;;;347720;28;4829;-95
2022/09/12 00:05:07;;;;;;;;;;;18.30;99.20;220.40;238766.00;;;;347726;28;4707;-90
2022/09/12 00:05:20;;;;;;;;;;;18.30;99.20;220.40;238766.00;;;;349076;28;4760;-90
2022/09/12 00:05:32;;;;;;;;;;;18.30;99.10;220.40;238766.00;;;;348952;28;4887;-91
2022/09/12 00:05:45;;;;;;;;;;;18.30;99.30;220.40;238766.00;;;;349086;28;4862;-92
2022/09/12 00:05:58;;;;;;;;;;;18.30;99.40;220.40;238766.00;;;;346425;28;5002;-91
2022/09/12 00:06:13;;;;;;;;;;;18.30;99.40;220.40;238766.00;;;;347164;28;4772;-91
2022/09/12 00:06:33;;;;;;;;;;;18.30;99.40;220.40;238766.00;;;;349979;28;4731;-88
2022/09/12 00:06:45;;;;;;;;;;;18.30;99.30;220.40;238766.00;;;;348994;28;4715;-96
2022/09/12 00:06:56;;;;;;;;;;;18.30;99.40;220.40;238766.00;;;;348694;28;4706;-90
2022/09/12 00:07:08;;;;;;;;;;;18.30;99.50;220.40;238766.00;;;;349111;28;4810;-91
2022/09/12 00:07:20;;;;;;;;;;;18.20;99.80;220.40;238766.00;;;;350400;28;4700;-90
2022/09/12 00:07:32;;;;;;;;;;;18.20;99.80;220.40;238766.00;;;;347601;28;4825;-92
2022/09/12 00:07:44;;;;;;;;;;;18.20;99.60;220.40;238766.00;;;;347785;28;4711;-91
2022/09/12 00:07:58;;;;;;;;;;;18.30;99.50;220.40;238766.00;;;;348982;28;4801;-90
2022/09/12 00:08:10;;;;;;;;;;;18.20;99.60;220.40;238766.00;;;;348712;28;4718;-91
2022/09/12 00:08:21;;;;;;;;;;;18.20;99.40;220.40;238766.00;;;;348606;28;4754;-91
2022/09/12 00:08:33;;;;;;;;;;;18.20;99.50;220.40;238766.00;;;;345947;28;4808;-90
2022/09/12 00:08:45;;;;;;;;;;;18.20;99.30;220.40;238766.00;;;;347771;28;4790;-90
2022/09/12 00:08:59;;;;;;;;;;;18.20;99.30;220.40;238766.00;;;;346437;28;5145;-90
2022/09/12 00:09:12;;;;;;;;;;;18.20;99.40;220.40;238766.00;;;;346050;28;4800;-91
2022/09/12 00:09:24;;;;;;;;;;;18.20;99.50;220.40;238766.00;;;;348987;28;4702;-91
2022/09/12 00:09:36;;;;;;;;;;;18.20;99.20;220.40;238766.00;;;;347686;28;4794;-91
2022/09/12 00:09:48;;;;;;;;;;;18.20;99.20;220.40;238766.00;;;;346230;28;4692;-91
2022/09/12 00:10:00;;;;;;;;;;;18.20;99.30;220.40;238766.00;;;;348971;28;4819;-90
2022/09/12 00:10:12;;;;;;;;;;;18.20;99.20;220.40;238766.00;;;;350103;28;4701;-91
2022/09/12 00:10:24;;;;;;;;;;;18.20;99.30;220.40;238766.00;;;;347399;28;4768;-90
2022/09/12 00:10:38;;;;;;;;;;;18.20;99.50;220.40;238766.00;;;;346017;28;4697;-91
2022/09/12 00:10:50;;;;;;;;;;;18.20;99.30;220.40;238766.00;;;;346105;28;4925;-90
2022/09/12 00:11:06;;;;;;;;;;;18.20;99.20;220.40;238766.00;;;;347283;28;4939;-90
2022/09/12 00:11:18;;;;;;;;;;;18.20;99.40;220.40;238766.00;;;;347450;28;4788;-90
2022/09/12 00:11:30;;;;;;;;;;;18.20;99.50;220.40;238766.00;;;;347608;28;4732;-91
2022/09/12 00:11:44;;;;;;;;;;;18.20;99.40;220.40;238766.00;;;;348722;28;4770;-91
2022/09/12 00:11:55;;;;;;;;;;;18.20;99.40;220.40;238766.00;;;;348805;28;4869;-90
2022/09/12 00:12:07;;;;;;;;;;;18.20;99.40;220.40;238766.00;;;;346388;28;4774;-91
2022/09/12 00:12:19;;;;;;;;;;;18.20;99.30;220.40;238766.00;;;;349153;28;4714;-91
2022/09/12 00:12:31;;;;;;;;;;;18.30;99.40;220.40;238766.00;;;;346357;28;4810;-91
2022/09/12 00:12:44;;;;;;;;;;;18.30;99.50;220.40;238766.00;;;;347659;28;4709;-90
2022/09/12 00:12:55;;;;;;;;;;;18.20;99.70;220.40;238766.00;;;;349135;28;4825;-91
2022/09/12 00:13:08;;;;;;;;;;;18.20;99.60;220.40;238766.00;;;;350083;28;4701;-91
2022/09/12 00:13:20;;;;;;;;;;;18.20;99.40;220.40;238766.00;;;;347623;28;4791;-90
2022/09/12 00:13:32;;;;;;;;;;;18.20;99.20;220.40;238766.00;;;;344743;28;4713;-90
2022/09/12 00:13:50;;;;;;;;;;;18.20;99.20;220.40;238766.00;;;;346421;28;4745;-91
2022/09/12 00:14:04;;;;;;;;;;;18.20;99.40;220.40;238766.00;;;;346381;28;4725;-90
2022/09/12 00:14:17;;;;;;;;;;;18.20;99.40;220.40;238766.00;;;;347708;28;4791;-91
2022/09/12 00:14:29;;;;;;;;;;;18.20;99.30;220.40;238766.00;;;;347859;28;4709;-90
2022/09/12 00:14:41;;;;;;;;;;;18.20;99.50;220.40;238766.00;;;;350426;28;4787;-91
2022/09/12 00:14:53;;;;;;;;;;;18.30;99.40;220.40;238766.00;;;;346182;28;4819;-91
2022/09/12 00:15:06;;;;;;;;;;;18.20;99.40;220.40;238766.00;;;;347899;28;4805;-90
2022/09/12 00:15:18;;;;;;;;;;;18.20;99.30;220.40;238766.00;;;;346428;28;4972;-91
2022/09/12 00:15:29;;;;;;;;;;;18.20;99.50;220.40;238766.00;;;;347627;28;4867;-90
2022/09/12 00:15:42;;;;;;;;;;;18.20;99.40;220.40;238766.00;;;;347819;28;4725;-91
2022/09/12 00:15:55;;;;;;;;;;;18.30;99.40;220.40;238766.00;;;;348024;28;4797;-91
2022/09/12 00:16:07;;;;;;;;;;;18.30;99.40;220.40;238766.00;;;;348121;28;4911;-90
2022/09/12 00:16:23;;;;;;;;;;;18.20;99.70;220.40;238766.00;;;;345429;28;4759;-90
2022/09/12 00:16:35;;;;;;;;;;;18.30;99.80;220.40;238766.00;;;;348085;28;4722;-90
2022/09/12 00:16:47;;;;;;;;;;;18.20;99.70;220.40;238766.00;;;;345505;28;4753;-91
2022/09/12 00:17:00;;;;;;;;;;;18.30;99.70;220.40;238766.00;;;;346504;28;4722;-90
2022/09/12 00:17:11;;;;;;;;;;;18.20;99.80;220.40;238766.00;;;;349390;28;4841;-92
2022/09/12 00:17:24;;;;;;;;;;;18.20;99.80;220.40;238766.00;;;;349458;28;4705;-90
2022/09/12 00:17:36;;;;;;;;;;;18.20;99.70;220.40;238766.00;;;;347787;28;4831;-90
2022/09/12 00:17:48;;;;;;;;;;;18.20;99.60;220.40;238766.00;;;;348035;28;5129;-91
2022/09/12 00:18:00;;;;;;;;;;;18.20;99.40;220.40;238766.00;;;;350789;28;4781;-90
2022/09/12 00:18:14;;;;;;;;;;;18.20;99.50;220.40;238766.00;;;;346662;28;4733;-91
2022/09/12 00:18:27;;;;;;;;;;;18.20;99.70;220.40;238766.00;;;;346658;28;4744;-91
2022/09/12 00:18:39;;;;;;;;;;;18.20;99.70;220.40;238766.00;;;;348003;28;4720;-89
2022/09/12 00:18:52;;;;;;;;;;;18.20;99.70;220.40;238766.00;;;;347958;28;4780;-91
2022/09/12 00:19:05;;;;;;;;;;;18.20;99.60;220.40;238766.00;;;;346669;28;4928;-91
2022/09/12 00:19:17;;;;;;;;;;;18.20;99.60;220.40;238766.00;;;;349417;28;4772;-91
2022/09/12 00:19:29;;;;;;;;;;;18.20;99.50;220.40;238766.00;;;;347667;28;4722;-91
2022/09/12 00:19:41;;;;;;;;;;;18.20;99.40;220.40;238766.00;;;;347415;28;4967;-91
2022/09/12 00:19:53;;;;;;;;;;;18.20;99.40;220.40;238766.00;;;;348914;28;4705;-91
2022/09/12 00:20:07;;;;;;;;;;;18.20;99.60;220.40;238766.00;;;;349414;28;4821;-91
2022/09/12 00:20:19;;;;;;;;;;;18.20;99.40;220.40;238766.00;;;;350644;28;4703;-91
2022/09/12 00:20:31;;;;;;;;;;;18.20;99.50;220.40;238766.00;;;;347909;28;4750;-91
2022/09/12 00:20:44;;;;;;;;;;;18.20;99.60;220.40;238766.00;;;;349416;28;4695;-91
2022/09/12 00:20:56;;;;;;;;;;;18.10;99.50;220.40;238766.00;;;;349036;28;4776;-91
2022/09/12 00:21:08;;;;;;;;;;;18.20;99.40;220.40;238766.00;;;;347767;28;4706;-91
2022/09/12 00:21:24;;;;;;;;;;;18.20;99.20;220.40;238766.00;;;;347676;28;4782;-91
2022/09/12 00:21:36;;;;;;;;;;;18.20;99.20;220.40;238766.00;;;;346400;28;4726;-91
2022/09/12 00:21:48;;;;;;;;;;;18.20;99.30;220.40;238766.00;;;;347573;28;4807;-91
2022/09/12 00:22:01;;;;;;;;;;;18.10;99.40;220.40;238766.00;;;;345034;28;4690;-90
2022/09/12 00:22:13;;;;;;;;;;;18.20;99.40;220.40;238766.00;;;;348872;28;4773;-91
2022/09/12 00:22:25;;;;;;;;;;;18.20;99.50;220.40;238766.00;;;;349027;28;5177;-90
2022/09/12 00:22:37;;;;;;;;;;;18.10;99.50;220.40;238766.00;;;;346294;28;4783;-91
2022/09/12 00:22:51;;;;;;;;;;;18.10;99.70;220.40;238766.00;;;;347844;28;4785;-90
2022/09/12 00:23:03;;;;;;;;;;;18.20;99.80;220.40;238766.00;;;;348896;28;4796;-91
2022/09/12 00:23:16;;;;;;;;;;;18.20;99.90;220.40;238766.00;;;;350676;28;4718;-91
2022/09/12 00:23:27;;;;;;;;;;;18.20;99.80;220.40;238766.00;;;;347729;28;4788;-91
2022/09/12 00:23:39;;;;;;;;;;;18.10;99.60;220.40;238766.00;;;;346207;28;4886;-91
2022/09/12 00:23:52;;;;;;;;;;;18.20;99.70;220.40;238766.00;;;;347725;28;4925;-90
2022/09/12 00:24:04;;;;;;;;;;;18.10;99.80;220.40;238766.00;;;;349058;28;5187;-90
2022/09/12 00:24:18;;;;;;;;;;;18.20;99.80;220.40;238766.00;;;;347497;28;4831;-91
2022/09/12 00:24:30;;;;;;;;;;;18.10;99.80;220.40;238766.00;;;;349076;28;4720;-91
2022/09/12 00:24:41;;;;;;;;;;;18.10;99.80;220.40;238766.00;;;;348896;28;4862;-90
2022/09/12 00:24:55;;;;;;;;;;;18.10;99.80;220.40;238766.00;;;;347710;28;4707;-91
2022/09/12 00:25:07;;;;;;;;;;;18.10;99.60;220.40;238766.00;;;;348689;28;4780;-91
2022/09/12 00:25:19;;;;;;;;;;;18.10;99.70;220.40;238766.00;;;;347672;28;4714;-91
2022/09/12 00:25:31;;;;;;;;;;;18.10;99.60;220.40;238766.00;;;;347873;28;4763;-90
2022/09/12 00:25:44;;;;;;;;;;;18.10;99.70;220.40;238766.00;;;;346185;28;4720;-91
2022/09/12 00:25:56;;;;;;;;;;;18.10;99.80;220.40;238766.00;;;;347758;28;4794;-90
2022/09/12 00:26:08;;;;;;;;;;;18.10;99.70;220.40;238766.00;;;;347934;28;4721;-91
2022/09/12 00:26:22;;;;;;;;;;;18.10;99.70;220.40;238766.00;;;;346240;28;4804;-90
2022/09/12 00:26:33;;;;;;;;;;;18.10;99.70;220.40;238766.00;;;;345157;28;4926;-91
2022/09/12 00:26:45;;;;;;;;;;;18.10;99.60;220.40;238766.00;;;;344638;28;4833;-91
2022/09/12 00:26:57;;;;;;;;;;;18.10;99.70;220.40;238766.00;;;;348766;28;4877;-90
2022/09/12 00:27:09;;;;;;;;;;;18.10;99.60;220.40;238766.00;;;;348927;28;4844;-89
2022/09/12 00:27:21;;;;;;;;;;;18.10;99.40;220.40;238766.00;;;;347546;28;4727;-90
2022/09/12 00:27:34;;;;;;;;;;;18.10;99.50;220.40;238766.00;;;;347439;28;4839;-91
2022/09/12 00:27:46;;;;;;;;;;;18.10;99.60;220.40;238766.00;;;;346345;28;4782;-91
2022/09/12 00:27:58;;;;;;;;;;;18.10;99.70;220.40;238766.00;;;;348819;28;4915;-91
2022/09/12 00:28:10;;;;;;;;;;;18.10;99.70;220.40;238766.00;;;;351425;28;4693;-91
2022/09/12 00:28:22;;;;;;;;;;;18.10;99.70;220.40;238766.00;;;;348433;28;4911;-91
2022/09/12 00:28:34;;;;;;;;;;;18.10;99.60;220.40;238766.00;;;;344561;28;4873;-90
2022/09/12 00:28:46;;;;;;;;;;;18.10;99.50;220.40;238766.00;;;;348508;28;4777;-91
2022/09/12 00:28:58;;;;;;;;;;;18.10;99.50;220.40;238766.00;;;;348739;28;5270;-90
2022/09/12 00:29:18;;;;;;;;;;;18.10;99.50;220.40;238766.00;;;;347202;28;4807;-91
2022/09/12 00:29:32;;;;;;;;;;;18.10;99.40;220.40;238766.00;;;;348537;28;4795;-90
2022/09/12 00:29:44;;;;;;;;;;;18.10;99.50;220.40;238766.00;;;;345888;28;4792;-91
2022/09/12 00:29:55;;;;;;;;;;;18.10;99.50;220.40;238766.00;;;;347371;28;4876;-91
2022/09/12 00:30:07;;;;;;;;;;;18.10;99.60;220.40;238766.00;;;;347213;28;4778;-91
2022/09/12 00:30:19;;;;;;;;;;;18.10;99.60;220.40;238766.00;;;;347536;28;4725;-91
2022/09/12 00:30:32;;;;;;;;;;;18.10;99.50;220.40;238766.00;;;;346316;28;4831;-91
2022/09/12 00:30:45;;;;;;;;;;;18.10;99.50;220.40;238766.00;;;;348995;28;4708;-90
2022/09/12 00:30:57;;;;;;;;;;;18.10;99.70;220.40;238766.00;;;;350318;28;4790;-91
2022/09/12 00:31:11;;;;;;;;;;;18.10;99.80;220.40;238766.00;;;;347678;28;4756;-91
2022/09/12 00:31:24;;;;;;;;;;;18.10;99.80;220.40;238766.00;;;;348574;28;4797;-91
2022/09/12 00:31:35;;;;;;;;;;;18.10;99.80;220.40;238766.00;;;;345982;28;4796;-91
2022/09/12 00:31:47;;;;;;;;;;;18.10;99.80;220.40;238766.00;;;;347145;28;4758;-91
2022/09/12 00:31:59;;;;;;;;;;;18.10;99.80;220.40;238766.00;;;;351268;28;4684;-91
2022/09/12 00:32:11;;;;;;;;;;;18.10;99.90;220.40;238766.00;;;;347069;28;4917;-91
2022/09/12 00:32:23;;;;;;;;;;;18.10;99.90;220.40;238766.00;;;;345883;28;4700;-91
2022/09/12 00:32:35;;;;;;;;;;;18.10;99.70;220.40;238766.00;;;;345791;28;4796;-91
2022/09/12 00:32:47;;;;;;;;;;;18.10;99.60;220.40;238766.00;;;;344819;28;4711;-91
2022/09/12 00:32:58;;;;;;;;;;;18.10;99.80;220.40;238766.00;;;;347657;28;4786;-90
2022/09/12 00:33:10;;;;;;;;;;;18.10;99.90;220.40;238766.00;;;;347718;28;4796;-90
2022/09/12 00:33:22;;;;;;;;;;;18.10;99.90;220.40;238766.00;;;;346263;28;4774;-91
2022/09/12 00:33:35;;;;;;;;;;;18.10;99.80;220.40;238766.00;;;;346250;28;4738;-92
2022/09/12 00:33:46;;;;;;;;;;;18.10;99.70;220.40;238766.00;;;;350235;28;4769;-91
2022/09/12 00:34:00;;;;;;;;;;;18.10;99.70;220.40;238766.00;;;;351697;28;4770;-90
2022/09/12 00:34:12;;;;;;;;;;;18.10;99.70;220.40;238766.00;;;;348855;28;4817;-90
2022/09/12 00:34:24;;;;;;;;;;;18.10;99.80;220.40;238766.00;;;;347438;28;4726;-90
2022/09/12 00:34:36;;;;;;;;;;;18.10;99.90;220.40;238766.00;;;;347470;28;4803;-91
2022/09/12 00:34:48;;;;;;;;;;;18.10;99.80;220.40;238766.00;;;;345855;28;4713;-90
2022/09/12 00:35:01;;;;;;;;;;;18.10;99.80;220.40;238766.00;;;;349972;28;4782;-91
2022/09/12 00:35:13;;;;;;;;;;;18.10;99.80;220.40;238766.00;;;;347111;28;4906;-91
2022/09/12 00:35:25;;;;;;;;;;;18.10;99.80;220.40;238766.00;;;;348356;28;4995;-91
2022/09/12 00:35:44;;;;;;;;;;;18.10;99.70;220.40;238766.00;;;;348665;28;4966;-91
2022/09/12 00:35:56;;;;;;;;;;;18.10;99.70;220.40;238766.00;;;;348809;28;4815;-90
2022/09/12 00:36:15;;;;;;;;;;;18.10;99.70;220.40;238766.00;;;;347210;28;5112;-90
2022/09/12 00:36:28;;;;;;;;;;;18.10;99.90;220.40;238766.00;;;;347246;28;4780;-91
2022/09/12 00:36:40;;;;;;;;;;;18.10;99.80;220.40;238766.00;;;;345856;28;4727;-91
2022/09/12 00:36:51;;;;;;;;;;;18.10;99.80;220.40;238766.00;;;;348494;28;4776;-91
2022/09/12 00:37:03;;;;;;;;;;;18.10;99.80;220.40;238766.00;;;;345976;28;4697;-90
2022/09/12 00:37:15;;;;;;;;;;;18.10;99.80;220.40;238766.00;;;;348512;28;4809;-90
2022/09/12 00:37:27;;;;;;;;;;;18.10;99.90;220.40;238766.00;;;;347082;28;4707;-89
2022/09/12 00:37:38;;;;;;;;;;;18.10;99.90;220.40;238766.00;;;;348313;28;4774;-91
2022/09/12 00:37:50;;;;;;;;;;;18.10;99.80;220.40;238766.00;;;;345922;28;4702;-90
2022/09/12 00:38:02;;;;;;;;;;;18.10;99.80;220.40;238766.00;;;;347041;28;4863;-91
2022/09/12 00:38:14;;;;;;;;;;;18.20;99.90;220.40;238766.00;;;;344385;28;4706;-90
2022/09/12 00:38:26;;;;;;;;;;;18.10;99.80;220.40;238766.00;;;;347189;28;4909;-91
2022/09/12 00:38:40;;;;;;;;;;;18.10;99.80;220.40;238766.00;;;;347316;28;4757;-91
2022/09/12 00:38:53;;;;;;;;;;;18.10;99.80;220.40;238766.00;;;;345759;28;4828;-91
2022/09/12 00:39:05;;;;;;;;;;;18.20;99.90;220.40;238766.00;;;;347336;28;4706;-91
2022/09/12 00:39:18;;;;;;;;;;;18.10;99.90;220.40;238766.00;;;;347340;28;4778;-90
2022/09/12 00:39:29;;;;;;;;;;;18.20;99.90;220.40;238766.00;;;;348426;28;4699;-90
2022/09/12 00:39:41;;;;;;;;;;;18.10;99.80;220.40;238766.00;;;;345550;28;4842;-91
2022/09/12 00:39:53;;;;;;;;;;;18.10;99.80;220.40;238766.00;;;;347283;28;4823;-90
2022/09/12 00:40:05;;;;;;;;;;;18.20;99.80;220.40;238766.00;;;;345903;28;4794;-91
2022/09/12 00:40:17;;;;;;;;;;;18.20;99.90;220.40;238766.00;;;;344425;28;4710;-91
2022/09/12 00:40:29;;;;;;;;;;;18.10;99.90;220.40;238766.00;;;;344425;28;4809;-90
2022/09/12 00:40:41;;;;;;;;;;;18.20;99.90;220.40;238766.00;;;;347198;28;4904;-91
2022/09/12 00:40:52;;;;;;;;;;;18.10;99.80;220.40;238766.00;;;;350110;28;4813;-91
2022/09/12 00:41:05;;;;;;;;;;;18.20;99.80;220.40;238766.00;;;;345628;28;4721;-90
2022/09/12 00:41:22;;;;;;;;;;;18.10;99.80;220.40;238766.00;;;;345849;28;4820;-91
2022/09/12 00:41:37;;;;;;;;;;;18.10;99.90;220.40;238766.00;;;;347174;28;4956;-91
2022/09/12 00:41:49;;;;;;;;;;;18.20;99.90;220.40;238766.00;;;;347270;28;4868;-91
2022/09/12 00:42:01;;;;;;;;;;;18.10;99.90;220.40;238766.00;;;;347247;28;4926;-91
2022/09/12 00:42:13;;;;;;;;;;;18.10;99.90;220.40;238766.00;;;;347766;28;4852;-90
2022/09/12 00:42:24;;;;;;;;;;;18.20;99.90;220.40;238766.00;;;;348663;28;4766;-91
2022/09/12 00:42:36;;;;;;;;;;;18.20;99.90;220.40;238766.00;;;;345857;28;4759;-91
2022/09/12 00:42:48;;;;;;;;;;;18.20;99.90;220.40;238766.00;;;;345835;28;5192;-89
2022/09/12 00:43:00;;;;;;;;;;;18.10;99.90;220.40;238766.00;;;;348583;28;4868;-90
2022/09/12 00:43:37;;;;;;;;;;;18.20;99.90;220.40;238766.00;;;;347036;28;4723;-91
2022/09/12 00:43:50;;;;;;;;;;;18.20;99.90;220.40;238766.00;;;;348588;28;4772;-91
2022/09/12 00:44:09;;;;;;;;;;;18.10;99.90;220.40;238766.00;;;;347091;28;4720;-90
2022/09/12 00:44:21;;;;;;;;;;;18.10;99.90;220.40;238766.00;;;;347102;28;4784;-90
2022/09/12 00:44:35;;;;;;;;;;;18.10;99.90;220.40;238766.00;;;;345834;28;4732;-91
2022/09/12 00:44:49;;;;;;;;;;;18.10;99.90;220.40;238766.00;;;;347194;28;4806;-91
2022/09/12 00:45:01;;;;;;;;;;;18.10;99.90;220.40;238766.00;;;;348469;28;4701;-91
2022/09/12 00:45:21;;;;;;;;;;;18.10;99.90;220.40;238766.00;;;;347187;28;4810;-91
2022/09/12 00:45:33;;;;;;;;;;;18.10;99.90;220.40;238766.00;;;;348544;28;4695;-91
2022/09/12 00:45:44;;;;;;;;;;;18.10;99.90;220.40;238766.00;;;;347111;28;4799;-91
2022/09/12 00:45:57;;;;;;;;;;;18.10;99.90;220.40;238766.00;;;;348618;28;4736;-91
2022/09/12 00:46:13;;;;;;;;;;;18.10;99.90;220.40;238766.00;;;;348387;28;4812;-91
2022/09/12 00:46:39;;;;;;;;;;;18.10;99.90;220.40;238766.00;;;;349947;28;4724;-91
2022/09/12 00:46:58;;;;;;;;;;;18.10;99.90;220.40;238766.00;;;;347097;28;4802;-91
2022/09/12 00:47:28;;;;;;;;;;;18.10;99.90;220.40;238766.00;;;;348630;28;4762;-91
2022/09/12 00:47:40;;;;;;;;;;;18.10;99.90;220.40;238766.00;;;;348305;28;4816;-91
2022/09/12 00:47:51;;;;;;;;;;;18.10;99.90;220.40;238766.00;;;;347218;28;5252;-91
2022/09/12 00:48:07;;;;;;;;;;;18.10;99.90;220.40;238766.00;;;;347200;28;4845;-91
2022/09/12 00:48:24;;;;;;;;;;;18.10;99.90;220.40;238766.00;;;;347215;28;4911;-91
2022/09/12 00:48:41;;;;;;;;;;;18.10;99.90;220.40;238766.00;;;;347182;28;4756;-90
2022/09/12 00:48:56;;;;;;;;;;;18.10;99.90;220.40;238766.00;;;;348240;28;4705;-91
2022/09/12 00:49:27;;;;;;;;;;;18.00;99.90;220.40;238766.00;;;;348631;28;4834;-91
2022/09/12 00:49:44;;;;;;;;;;;18.10;99.90;220.40;238766.00;;;;347107;28;4989;-90
2022/09/12 00:50:06;;;;;;;;;;;18.10;99.90;220.40;238766.00;;;;347050;28;4844;-90
2022/09/12 00:50:18;;;;;;;;;;;18.10;99.90;220.40;238766.00;;;;346065;28;4917;-90
2022/09/12 00:50:30;;;;;;;;;;;18.00;99.90;220.40;238766.00;;;;346098;28;4898;-91
2022/09/12 00:50:42;;;;;;;;;;;18.00;99.90;220.40;238766.00;;;;348734;28;4706;-91
2022/09/12 00:50:54;;;;;;;;;;;18.00;99.90;220.40;238766.00;;;;348669;28;4811;-90
2022/09/12 00:51:06;;;;;;;;;;;18.00;99.90;220.40;238766.00;;;;347462;28;4693;-90
2022/09/12 00:51:17;;;;;;;;;;;18.00;99.90;220.40;238766.00;;;;347383;28;4779;-91
2022/09/12 00:51:30;;;;;;;;;;;18.00;99.90;220.40;238766.00;;;;346108;28;4875;-91
2022/09/12 00:51:45;;;;;;;;;;;18.00;99.90;220.40;238766.00;;;;347319;28;4870;-91
2022/09/12 00:51:59;;;;;;;;;;;18.00;99.90;220.40;238766.00;;;;346217;28;5033;-91
2022/09/12 00:52:15;;;;;;;;;;;18.00;99.90;220.40;238766.00;;;;348758;28;4804;-91
2022/09/12 00:52:36;;;;;;;;;;;18.00;99.90;220.40;238766.00;;;;347434;28;4741;-91
2022/09/12 00:52:52;;;;;;;;;;;18.00;99.90;220.40;238766.00;;;;348682;28;4667;-90
2022/09/12 00:53:05;;;;;;;;;;;18.00;99.90;220.40;238766.00;;;;347383;28;4695;-91
2022/09/12 00:53:16;;;;;;;;;;;18.00;99.90;220.40;238766.00;;;;346085;28;4756;-90
2022/09/12 00:53:28;;;;;;;;;;;18.00;99.90;220.40;238766.00;;;;343381;28;4918;-91
2022/09/12 00:53:40;;;;;;;;;;;18.00;99.90;220.40;238766.00;;;;347300;28;4822;-91
2022/09/12 00:53:52;;;;;;;;;;;18.00;99.90;220.40;238766.00;;;;350238;28;4695;-90
2022/09/12 00:54:07;;;;;;;;;;;18.00;99.90;220.40;238766.00;;;;347391;28;4887;-92
2022/09/12 00:54:21;;;;;;;;;;;18.00;99.90;220.40;238766.00;;;;345933;28;4732;-90
2022/09/12 00:54:37;;;;;;;;;;;18.00;99.90;220.40;238766.00;;;;348836;28;4860;-90
2022/09/12 00:55:16;;;;;;;;;;;18.00;99.90;220.40;238766.00;;;;347392;28;4692;-91
2022/09/12 00:55:40;;;;;;;;;;;18.00;99.90;220.40;238766.00;;;;343071;28;4774;-90
2022/09/12 00:55:52;;;;;;;;;;;17.90;99.90;220.40;238766.00;;;;350161;28;4988;-91
2022/09/12 00:56:03;;;;;;;;;;;17.90;99.90;220.40;238766.00;;;;347444;28;4700;-91
2022/09/12 00:56:16;;;;;;;;;;;17.90;99.90;220.40;238766.00;;;;345965;28;4783;-90
2022/09/12 00:56:28;;;;;;;;;;;17.90;99.90;220.40;238766.00;;;;345997;28;4801;-91
2022/09/12 00:56:40;;;;;;;;;;;17.90;99.90;220.40;238766.00;;;;346009;28;4765;-91
2022/09/12 00:56:53;;;;;;;;;;;17.90;99.90;220.40;238766.00;;;;348769;28;4747;-90
2022/09/12 00:57:05;;;;;;;;;;;17.90;99.90;220.40;238766.00;;;;348680;28;4785;-91
2022/09/12 00:57:17;;;;;;;;;;;17.90;99.90;220.40;238766.00;;;;348782;28;4771;-90
2022/09/12 00:57:32;;;;;;;;;;;17.90;99.90;220.40;238766.00;;;;348774;28;4698;-91
2022/09/12 00:57:55;;;;;;;;;;;17.90;99.90;220.40;238766.00;;;;348774;28;4811;-91
2022/09/12 00:58:13;;;;;;;;;;;17.90;99.90;220.40;238766.00;;;;348818;28;4726;-91
2022/09/12 00:58:28;;;;;;;;;;;17.90;99.90;220.40;238766.00;;;;348731;28;4791;-91
2022/09/12 00:58:43;;;;;;;;;;;17.90;99.90;220.40;238766.00;;;;347085;28;4721;-90
2022/09/12 00:58:59;;;;;;;;;;;17.80;99.90;220.40;238766.00;;;;348664;28;4821;-91
2022/09/12 00:59:18;;;;;;;;;;;17.80;99.90;220.40;238766.00;;;;346129;28;4829;-91
2022/09/12 00:59:41;;;;;;;;;;;17.80;99.90;220.40;238766.00;;;;347321;28;4767;-91
2022/09/12 00:59:56;;;;;;;;;;;17.80;99.90;220.40;238766.00;;;;347406;28;5371;-90
2022/09/12 01:00:14;;;;;;;;;;;17.80;99.90;220.40;238766.00;;;;346066;28;4828;-91
2022/09/12 01:00:26;;;;;;;;;;;17.80;99.90;220.40;238766.00;;;;347485;28;4733;-91
2022/09/12 01:00:38;;;;;;;;;;;17.80;99.90;220.40;238766.00;;;;348755;28;4962;-91
2022/09/12 01:00:50;;;;;;;;;;;17.80;99.90;220.40;238766.00;;;;347470;28;4694;-90
2022/09/12 01:01:02;;;;;;;;;;;17.80;99.90;220.40;238766.00;;;;347323;28;4843;-90
2022/09/12 01:01:14;;;;;;;;;;;17.80;99.90;220.40;238766.00;;;;348814;28;4707;-91
2022/09/12 01:01:26;;;;;;;;;;;17.80;99.90;220.40;238766.00;;;;347469;28;4932;-90
2022/09/12 01:01:43;;;;;;;;;;;17.80;99.90;220.40;238766.00;;;;349873;28;4906;-91
2022/09/12 01:01:55;;;;;;;;;;;17.80;99.90;220.40;238766.00;;;;347421;28;4786;-91
2022/09/12 01:02:07;;;;;;;;;;;17.80;99.90;220.40;238766.00;;;;345982;28;4938;-90
2022/09/12 01:02:20;;;;;;;;;;;17.80;99.90;220.40;238766.00;;;;345921;28;4822;-91
2022/09/12 01:02:32;;;;;;;;;;;17.80;99.90;220.40;238766.00;;;;345935;28;4938;-90
2022/09/12 01:02:45;;;;;;;;;;;17.80;99.90;220.40;238766.00;;;;347418;28;4783;-90
2022/09/12 01:03:04;;;;;;;;;;;17.80;99.90;220.40;238766.00;;;;348774;28;4771;-90
2022/09/12 01:03:18;;;;;;;;;;;17.80;99.90;220.40;238766.00;;;;345963;28;4836;-91
2022/09/12 01:03:30;;;;;;;;;;;17.80;99.90;220.40;238766.00;;;;348632;28;4701;-91
2022/09/12 01:03:41;;;;;;;;;;;17.80;99.90;220.40;238766.00;;;;348705;28;4804;-91
2022/09/12 01:03:53;;;;;;;;;;;17.80;99.90;220.40;238766.00;;;;347387;28;4708;-91
2022/09/12 01:04:07;;;;;;;;;;;17.80;99.90;220.40;238766.00;;;;348895;28;4795;-91
2022/09/12 01:04:20;;;;;;;;;;;17.80;99.90;220.40;238766.00;;;;345939;28;4706;-90
2022/09/12 01:04:32;;;;;;;;;;;17.80;99.90;220.40;238766.00;;;;348834;28;4793;-91
2022/09/12 01:04:44;;;;;;;;;;;17.80;99.90;220.40;238766.00;;;;346044;28;4732;-90
2022/09/12 01:04:56;;;;;;;;;;;17.80;99.90;220.40;238766.00;;;;344585;28;4819;-90
2022/09/12 01:05:08;;;;;;;;;;;17.80;99.90;220.40;238766.00;;;;348478;28;4887;-90
2022/09/12 01:05:20;;;;;;;;;;;17.80;99.90;220.40;238766.00;;;;347253;28;4863;-92
2022/09/12 01:05:33;;;;;;;;;;;17.80;99.90;220.40;238766.00;;;;346023;28;5019;-91